Time;durP1;ratioP1;P1;durP2;ratioP2;P2;SDS_P1;SDS_P2;PMS_P1;PMS_P2;Temp;Humidity;BMP_temperature;BMP_pressure;BME280_temperature;BME280_humidity;BME280_pressure;Samples;Min_cycle;Max_cycle;Signal;HPM_P1;HPM_P2
2021/04/20 00:00:28;;;;;;;10.63;7.82;;;4.20;75.80;;;;;;4990075;29;20130;-65
2021/04/20 00:02:59;;;;;;;12.32;8.52;;;4.30;75.80;;;;;;4989815;29;20053;-65
2021/04/20 00:05:31;;;;;;;14.43;9.27;;;4.30;75.70;;;;;;4989770;29;20518;-65
2021/04/20 00:08:02;;;;;;;12.10;8.85;;;4.30;76.40;;;;;;4992836;29;20054;-64
2021/04/20 00:10:34;;;;;;;11.55;8.23;;;4.30;75.80;;;;;;5002899;29;20057;-65
2021/04/20 00:13:06;;;;;;;11.38;8.55;;;4.30;75.70;;;;;;4991754;29;20049;-64
2021/04/20 00:15:38;;;;;;;13.75;9.35;;;4.20;76.30;;;;;;4991531;29;20146;-64
2021/04/20 00:18:10;;;;;;;11.55;8.80;;;4.20;75.60;;;;;;4992971;29;20072;-65
2021/04/20 00:20:42;;;;;;;12.90;9.40;;;4.20;75.90;;;;;;4991539;29;20512;-64
2021/04/20 00:23:13;;;;;;;12.32;8.50;;;4.20;75.80;;;;;;4989980;29;20057;-65
2021/04/20 00:25:44;;;;;;;13.15;9.32;;;4.10;76.00;;;;;;4989810;29;20107;-64
2021/04/20 00:28:26;;;;;;;12.68;9.27;;;4.10;76.20;;;;;;5004704;29;20185;-65
2021/04/20 00:30:58;;;;;;;11.88;8.43;;;4.10;76.10;;;;;;4989347;29;20623;-63
2021/04/20 00:33:30;;;;;;;11.48;8.65;;;4.20;76.10;;;;;;4990918;29;20137;-64
2021/04/20 00:36:01;;;;;;;11.32;8.77;;;4.20;75.90;;;;;;4989405;29;20062;-64
2021/04/20 00:38:33;;;;;;;12.02;8.48;;;4.10;75.90;;;;;;4990472;29;20102;-65
2021/04/20 00:41:09;;;;;;;11.73;8.73;;;4.10;76.00;;;;;;4989294;29;20122;-65
2021/04/20 00:43:47;;;;;;;12.52;9.18;;;3.90;76.20;;;;;;4991734;29;20049;-65
2021/04/20 00:46:20;;;;;;;11.95;9.35;;;4.00;76.50;;;;;;5001819;29;20061;-64
2021/04/20 00:48:52;;;;;;;11.65;8.80;;;4.00;76.00;;;;;;4991269;29;20038;-65
2021/04/20 00:51:23;;;;;;;11.50;8.68;;;4.10;75.80;;;;;;5004832;29;20134;-67
2021/04/20 00:53:55;;;;;;;11.43;8.52;;;4.10;76.00;;;;;;4992070;29;20054;-64
2021/04/20 00:56:28;;;;;;;11.60;7.95;;;4.10;75.80;;;;;;4991526;29;20061;-64
2021/04/20 00:59:00;;;;;;;10.45;7.97;;;4.20;75.60;;;;;;4992223;29;20530;-65
2021/04/20 01:01:33;;;;;;;9.63;7.50;;;4.30;75.30;;;;;;4989659;29;20050;-64
2021/04/20 01:04:04;;;;;;;11.32;8.38;;;4.30;75.20;;;;;;5002622;29;20627;-65
2021/04/20 01:06:36;;;;;;;11.50;7.80;;;4.40;75.10;;;;;;4989809;29;20061;-64
2021/04/20 01:09:09;;;;;;;11.23;8.27;;;4.40;74.90;;;;;;4989723;29;20115;-64
2021/04/20 01:11:41;;;;;;;10.25;7.82;;;4.40;74.80;;;;;;4990852;29;20046;-65
2021/04/20 01:14:14;;;;;;;11.23;7.43;;;4.40;74.90;;;;;;4990938;29;20051;-64
2021/04/20 01:16:45;;;;;;;9.65;7.25;;;4.50;74.90;;;;;;5000981;29;20043;-65
2021/04/20 01:19:19;;;;;;;9.55;7.40;;;4.40;74.70;;;;;;4988949;29;20134;-65
2021/04/20 01:21:52;;;;;;;11.68;7.93;;;4.40;74.60;;;;;;4986601;29;20107;-65
2021/04/20 01:24:25;;;;;;;9.93;7.72;;;4.40;74.80;;;;;;5002816;29;20439;-64
2021/04/20 01:26:58;;;;;;;11.73;8.50;;;4.40;74.60;;;;;;4987868;29;20050;-65
2021/04/20 01:29:30;;;;;;;10.20;7.60;;;4.40;74.50;;;;;;5003551;29;20078;-64
2021/04/20 01:32:01;;;;;;;10.70;8.38;;;4.50;74.50;;;;;;4999261;29;20054;-64
2021/04/20 01:34:33;;;;;;;11.27;8.15;;;4.40;74.20;;;;;;4990318;29;20046;-65
2021/04/20 01:37:04;;;;;;;10.20;8.15;;;4.50;74.50;;;;;;5005432;29;20060;-64
2021/04/20 01:39:36;;;;;;;9.93;7.25;;;4.50;74.10;;;;;;5002576;29;20474;-65
2021/04/20 01:42:08;;;;;;;11.27;7.97;;;4.50;74.50;;;;;;4987671;29;20054;-64
2021/04/20 01:44:41;;;;;;;12.82;7.85;;;4.50;74.30;;;;;;4982653;29;20051;-64
2021/04/20 01:47:12;;;;;;;10.52;7.88;;;4.50;74.30;;;;;;4990211;29;20050;-65
2021/04/20 01:49:44;;;;;;;12.30;8.50;;;4.50;74.50;;;;;;4990390;29;20127;-64
2021/04/20 01:52:16;;;;;;;10.10;7.97;;;4.50;74.50;;;;;;4992682;29;20047;-64
2021/04/20 01:54:48;;;;;;;9.93;7.75;;;4.50;74.80;;;;;;4992853;29;20057;-65
2021/04/20 01:57:19;;;;;;;10.98;7.70;;;4.60;74.80;;;;;;4995443;29;20489;-65
2021/04/20 01:59:51;;;;;;;9.35;7.28;;;4.50;74.20;;;;;;4990547;29;20038;-64
2021/04/20 02:02:22;;;;;;;12.27;8.38;;;4.40;74.50;;;;;;4988612;29;20078;-64
2021/04/20 02:04:54;;;;;;;11.23;8.18;;;4.30;75.20;;;;;;5006351;29;20685;-63
2021/04/20 02:07:27;;;;;;;11.20;8.80;;;4.20;75.40;;;;;;4994005;29;20054;-64
2021/04/20 02:10:00;;;;;;;12.18;8.75;;;4.10;76.10;;;;;;4988450;29;20838;-64
2021/04/20 02:12:32;;;;;;;11.07;8.30;;;4.00;76.30;;;;;;5007428;29;20046;-64
2021/04/20 02:15:10;;;;;;;12.02;8.68;;;3.90;76.10;;;;;;4993429;29;20053;-64
2021/04/20 02:17:43;;;;;;;10.35;8.30;;;3.90;76.90;;;;;;4992603;29;20061;-64
2021/04/20 02:20:15;;;;;;;12.13;8.18;;;3.90;76.90;;;;;;4992749;29;20616;-64
2021/04/20 02:22:49;;;;;;;10.57;8.02;;;3.90;76.60;;;;;;4986679;29;20532;-64
2021/04/20 02:25:20;;;;;;;9.90;7.95;;;4.10;76.60;;;;;;4992557;29;20050;-65
2021/04/20 02:27:53;;;;;;;10.52;8.20;;;4.10;77.00;;;;;;4991190;29;20079;-66
2021/04/20 02:30:25;;;;;;;11.73;8.60;;;4.20;76.60;;;;;;4990273;29;20038;-65
2021/04/20 02:32:57;;;;;;;11.02;8.70;;;4.20;76.70;;;;;;4992460;29;20052;-65
2021/04/20 02:35:31;;;;;;;10.32;7.30;;;4.20;76.40;;;;;;5004048;29;20166;-64
2021/04/20 02:38:02;;;;;;;9.80;8.10;;;4.20;76.10;;;;;;4986805;29;20039;-64
2021/04/20 02:40:35;;;;;;;10.80;8.15;;;4.20;76.10;;;;;;4991278;29;20050;-65
2021/04/20 02:43:07;;;;;;;9.88;7.20;;;4.30;75.70;;;;;;4992612;29;20126;-65
2021/04/20 02:45:38;;;;;;;9.50;7.20;;;4.40;75.80;;;;;;4989330;29;20054;-65
2021/04/20 02:48:10;;;;;;;9.50;7.22;;;4.40;75.80;;;;;;5006953;29;20057;-65
2021/04/20 02:50:43;;;;;;;9.65;7.28;;;4.40;76.20;;;;;;4989726;29;20141;-66
2021/04/20 02:53:16;;;;;;;8.85;6.95;;;4.40;75.50;;;;;;4995152;29;20077;-65
2021/04/20 02:55:47;;;;;;;10.18;6.93;;;4.40;75.80;;;;;;4989292;29;20050;-65
2021/04/20 02:58:26;;;;;;;12.00;7.40;;;4.40;75.80;;;;;;4992291;29;20049;-65
2021/04/20 03:01:05;;;;;;;9.20;7.10;;;4.30;76.00;;;;;;4991601;29;20074;-66
2021/04/20 03:03:38;;;;;;;9.82;7.18;;;4.30;76.30;;;;;;5005815;29;20054;-64
2021/04/20 03:06:11;;;;;;;9.25;6.80;;;4.40;76.20;;;;;;5002523;29;20042;-64
2021/04/20 03:08:44;;;;;;;8.65;6.75;;;4.40;75.80;;;;;;4992499;29;20058;-65
2021/04/20 03:11:38;;;;;;;9.60;7.07;;;4.40;75.90;;;;;;4990218;29;20602;-66
2021/04/20 03:14:10;;;;;;;9.35;6.57;;;4.40;75.50;;;;;;4992817;29;20054;-66
2021/04/20 03:16:42;;;;;;;11.18;6.93;;;4.40;75.20;;;;;;4991771;29;20042;-65
2021/04/20 03:19:14;;;;;;;9.02;6.80;;;4.40;75.50;;;;;;4991240;29;20133;-66
2021/04/20 03:21:49;;;;;;;9.02;7.05;;;4.40;75.80;;;;;;4990722;29;20050;-66
2021/04/20 03:25:00;;;;;;;9.13;6.30;;;4.40;75.80;;;;;;4992125;29;20061;-66
2021/04/20 03:27:35;;;;;;;9.48;7.00;;;4.30;75.60;;;;;;4987878;29;20046;-65
2021/04/20 03:30:07;;;;;;;9.30;7.10;;;4.30;75.90;;;;;;4990083;29;20047;-66
2021/04/20 03:32:44;;;;;;;9.20;6.93;;;4.30;75.80;;;;;;4986233;29;20058;-66
2021/04/20 03:35:33;;;;;;;9.73;6.75;;;4.30;76.00;;;;;;4992287;29;20095;-65
2021/04/20 03:38:23;;;;;;;9.10;6.95;;;4.30;76.00;;;;;;4992542;29;20183;-66
2021/04/20 03:41:02;;;;;;;8.52;6.72;;;4.40;75.40;;;;;;4990587;29;20085;-65
2021/04/20 03:43:37;;;;;;;8.85;6.50;;;4.40;74.50;;;;;;4987365;29;20099;-66
2021/04/20 03:46:25;;;;;;;10.35;7.70;;;4.50;74.50;;;;;;4990151;29;20046;-66
2021/04/20 03:49:10;;;;;;;8.35;6.70;;;4.50;74.80;;;;;;4991684;29;20111;-65
2021/04/20 03:51:45;;;;;;;11.05;7.28;;;4.40;75.20;;;;;;5002632;29;20053;-65
2021/04/20 03:54:19;;;;;;;9.25;7.35;;;4.40;75.40;;;;;;4992731;29;20052;-66
2021/04/20 03:56:54;;;;;;;9.00;6.78;;;4.40;75.30;;;;;;4997893;29;20069;-66
2021/04/20 03:59:28;;;;;;;10.52;6.70;;;4.40;75.40;;;;;;4987914;29;20137;-66
2021/04/20 04:02:00;;;;;;;9.10;7.03;;;4.40;75.60;;;;;;5002610;29;20046;-67
2021/04/20 04:04:33;;;;;;;8.25;6.40;;;4.40;75.70;;;;;;4988529;29;20049;-66
2021/04/20 04:07:05;;;;;;;10.48;6.93;;;4.40;75.40;;;;;;4989614;29;20050;-65
2021/04/20 04:09:40;;;;;;;9.60;6.80;;;4.30;75.50;;;;;;4988415;29;20061;-66
2021/04/20 04:12:14;;;;;;;9.38;6.60;;;4.30;76.00;;;;;;4987504;29;20435;-66
2021/04/20 04:14:47;;;;;;;8.43;6.80;;;4.30;75.80;;;;;;4990932;29;20050;-65
2021/04/20 04:17:21;;;;;;;9.73;6.78;;;4.30;75.80;;;;;;5003012;29;20514;-66
2021/04/20 04:19:54;;;;;;;9.88;7.50;;;4.30;75.80;;;;;;5006273;29;20042;-66
2021/04/20 04:22:28;;;;;;;10.50;7.38;;;4.10;76.50;;;;;;4989652;29;20153;-66
2021/04/20 04:25:04;;;;;;;10.45;7.38;;;4.00;77.00;;;;;;5003115;29;20042;-66
2021/04/20 04:27:42;;;;;;;9.48;6.85;;;3.90;77.40;;;;;;4991427;29;20145;-66
2021/04/20 04:30:15;;;;;;;9.43;6.47;;;3.80;77.90;;;;;;4993987;29;20054;-66
2021/04/20 04:32:48;;;;;;;9.48;7.60;;;3.80;78.10;;;;;;4992193;29;20102;-66
2021/04/20 04:35:20;;;;;;;9.95;7.72;;;3.80;78.20;;;;;;4992820;29;20105;-66
2021/04/20 04:37:52;;;;;;;9.75;7.45;;;3.70;78.70;;;;;;4989727;29;20074;-66
2021/04/20 04:40:24;;;;;;;10.90;8.30;;;3.80;78.00;;;;;;4987972;29;20086;-65
2021/04/20 04:42:59;;;;;;;9.45;6.90;;;3.90;78.00;;;;;;4988289;29;20038;-66
2021/04/20 04:45:31;;;;;;;9.88;6.85;;;3.90;78.00;;;;;;4992061;29;20049;-67
2021/04/20 04:48:04;;;;;;;10.30;7.55;;;4.00;78.30;;;;;;5003078;29;20136;-66
2021/04/20 04:50:39;;;;;;;10.93;7.47;;;4.10;78.00;;;;;;5004096;29;20054;-66
2021/04/20 04:53:11;;;;;;;12.02;7.75;;;4.20;77.90;;;;;;4991282;29;20054;-66
2021/04/20 04:55:43;;;;;;;10.20;7.32;;;4.20;77.00;;;;;;4992015;29;20070;-66
2021/04/20 04:58:17;;;;;;;9.55;7.07;;;4.30;77.60;;;;;;4987404;29;20598;-66
2021/04/20 05:00:49;;;;;;;10.50;7.22;;;4.30;77.30;;;;;;4990691;29;20425;-66
2021/04/20 05:03:24;;;;;;;10.50;8.13;;;4.40;76.90;;;;;;5002047;29;20107;-66
2021/04/20 05:05:58;;;;;;;10.57;7.32;;;4.50;76.80;;;;;;4991282;29;20035;-66
2021/04/20 05:08:30;;;;;;;10.48;7.35;;;4.40;77.10;;;;;;5001820;29;20047;-66
2021/04/20 05:11:03;;;;;;;11.68;7.57;;;4.40;76.70;;;;;;4988018;29;20126;-66
2021/04/20 05:13:35;;;;;;;10.30;7.13;;;4.50;76.30;;;;;;4988985;29;20046;-65
2021/04/20 05:16:08;;;;;;;10.20;7.32;;;4.50;76.30;;;;;;4988402;29;20109;-66
2021/04/20 05:18:39;;;;;;;9.52;7.18;;;4.50;76.70;;;;;;5000116;29;20050;-65
2021/04/20 05:21:11;;;;;;;10.07;7.20;;;4.50;76.30;;;;;;5002364;29;20050;-65
2021/04/20 05:23:43;;;;;;;9.95;6.78;;;4.50;76.70;;;;;;4989203;29;20046;-65
2021/04/20 05:26:15;;;;;;;13.43;6.97;;;4.50;76.70;;;;;;4991419;29;20110;-65
2021/04/20 05:28:46;;;;;;;13.70;8.98;;;4.60;76.80;;;;;;4990761;29;20043;-65
2021/04/20 05:31:18;;;;;;;10.30;7.40;;;4.70;76.30;;;;;;4987431;29;20163;-65
2021/04/20 05:34:01;;;;;;;10.88;7.47;;;4.70;76.20;;;;;;4994286;29;20046;-65
2021/04/20 05:36:34;;;;;;;9.82;7.60;;;4.60;76.00;;;;;;4991154;29;20129;-65
2021/04/20 05:39:10;;;;;;;9.77;7.18;;;4.70;76.00;;;;;;5004106;29;20153;-66
2021/04/20 05:41:42;;;;;;;9.98;7.25;;;4.80;75.40;;;;;;5002735;29;20556;-65
2021/04/20 05:44:15;;;;;;;10.30;7.97;;;4.90;75.80;;;;;;4990085;29;20042;-65
2021/04/20 05:46:48;;;;;;;11.95;7.43;;;5.00;75.90;;;;;;4990183;29;20532;-66
2021/04/20 05:49:20;;;;;;;11.00;7.38;;;5.00;75.60;;;;;;4991478;29;20050;-68
2021/04/20 05:51:51;;;;;;;9.90;6.60;;;5.10;75.50;;;;;;4988191;29;20057;-65
2021/04/20 05:54:23;;;;;;;9.00;6.75;;;5.20;74.90;;;;;;5009189;29;20536;-65
2021/04/20 05:56:54;;;;;;;8.48;6.22;;;5.20;73.80;;;;;;4992222;29;20058;-65
2021/04/20 05:59:26;;;;;;;9.27;6.63;;;5.30;74.00;;;;;;5005618;29;20050;-65
2021/04/20 06:01:57;;;;;;;9.52;6.95;;;5.40;73.90;;;;;;4990011;29;20046;-65
2021/04/20 06:04:30;;;;;;;8.55;6.28;;;5.50;73.80;;;;;;4990308;29;20535;-65
2021/04/20 06:07:01;;;;;;;9.43;7.00;;;5.60;73.40;;;;;;4993361;29;20090;-65
2021/04/20 06:09:33;;;;;;;12.65;7.00;;;5.70;73.70;;;;;;4992587;29;20639;-66
2021/04/20 06:12:05;;;;;;;10.13;7.18;;;5.80;73.70;;;;;;4990901;29;20520;-65
2021/04/20 06:14:38;;;;;;;9.07;6.85;;;5.90;73.40;;;;;;4991353;29;20043;-65
2021/04/20 06:17:13;;;;;;;8.98;6.70;;;6.00;72.30;;;;;;4993048;29;20051;-65
2021/04/20 06:19:44;;;;;;;10.55;7.75;;;5.90;71.70;;;;;;4994012;29;20046;-66
2021/04/20 06:22:17;;;;;;;11.57;7.07;;;6.00;72.30;;;;;;4992112;29;20058;-65
2021/04/20 06:24:49;;;;;;;9.27;6.93;;;6.10;71.70;;;;;;4993708;29;20054;-66
2021/04/20 06:27:21;;;;;;;9.90;7.10;;;6.20;71.10;;;;;;4986510;29;20054;-65
2021/04/20 06:29:52;;;;;;;12.05;6.95;;;6.20;71.30;;;;;;5008622;29;20046;-65
2021/04/20 06:32:25;;;;;;;25.13;9.13;;;6.30;71.00;;;;;;5003285;29;20487;-65
2021/04/20 06:34:57;;;;;;;11.55;7.75;;;6.30;70.90;;;;;;5008869;29;20046;-65
2021/04/20 06:37:29;;;;;;;10.15;7.72;;;6.40;71.10;;;;;;4990121;29;20059;-67
2021/04/20 06:40:01;;;;;;;11.27;7.30;;;6.50;71.20;;;;;;4994581;29;20058;-65
2021/04/20 06:42:45;;;;;;;10.80;7.47;;;6.50;71.20;;;;;;4986709;29;20054;-65
2021/04/20 06:45:41;;;;;;;10.80;7.60;;;6.60;70.80;;;;;;4992420;29;20394;-65
2021/04/20 06:48:42;;;;;;;10.05;7.80;;;6.70;70.70;;;;;;4992067;29;20046;-65
2021/04/20 06:51:22;;;;;;;11.43;7.70;;;6.80;69.50;;;;;;4994617;29;20608;-66
2021/04/20 06:54:44;;;;;;;12.20;8.45;;;6.90;69.70;;;;;;4992672;29;20049;-65
2021/04/20 06:57:22;;;;;;;10.32;7.28;;;7.00;69.10;;;;;;5005490;29;20061;-65
2021/04/20 07:00:02;;;;;;;8.23;6.85;;;7.00;68.60;;;;;;4991375;29;20109;-65
2021/04/20 07:03:02;;;;;;;9.63;7.40;;;7.10;67.90;;;;;;4991644;29;20135;-66
2021/04/20 07:05:54;;;;;;;10.32;7.45;;;7.20;67.30;;;;;;4991460;29;20122;-65
2021/04/20 07:09:01;;;;;;;8.98;6.93;;;7.20;67.50;;;;;;4989298;29;20457;-65
2021/04/20 07:11:34;;;;;;;10.00;7.93;;;7.30;67.50;;;;;;4990327;29;20042;-66
2021/04/20 07:14:06;;;;;;;10.05;7.40;;;7.40;68.20;;;;;;4992518;29;20136;-67
2021/04/20 07:16:51;;;;;;;9.48;7.38;;;7.50;67.00;;;;;;4992715;29;20161;-66
2021/04/20 07:19:55;;;;;;;9.60;6.95;;;7.70;67.40;;;;;;4990960;29;20099;-65
2021/04/20 07:23:28;;;;;;;9.13;6.40;;;7.80;67.20;;;;;;4991183;29;20393;-66
2021/04/20 07:26:37;;;;;;;13.02;7.03;;;7.90;66.10;;;;;;4979144;29;20113;-66
2021/04/20 07:29:46;;;;;;;12.13;7.40;;;8.00;64.80;;;;;;4986920;29;20047;-65
2021/04/20 07:32:54;;;;;;;10.02;7.38;;;8.10;64.10;;;;;;4991329;29;20110;-68
2021/04/20 07:35:36;;;;;;;11.77;7.53;;;8.10;64.20;;;;;;4990651;29;20528;-69
2021/04/20 07:38:16;;;;;;;11.88;7.80;;;8.20;64.10;;;;;;4990650;29;20042;-66
2021/04/20 07:41:03;;;;;;;12.80;9.05;;;8.30;64.10;;;;;;4975405;29;20064;-66
2021/04/20 07:43:52;;;;;;;12.73;7.53;;;8.30;64.30;;;;;;5004708;29;20082;-66
2021/04/20 07:46:57;;;;;;;11.48;9.07;;;8.40;64.90;;;;;;4988488;29;20582;-65
2021/04/20 07:49:53;;;;;;;11.30;8.77;;;8.50;64.60;;;;;;4994611;29;20058;-67
2021/04/20 07:52:52;;;;;;;13.48;9.68;;;8.60;64.50;;;;;;4989506;29;20110;-66
2021/04/20 07:55:46;;;;;;;15.80;12.63;;;8.70;64.90;;;;;;5005713;29;20054;-66
2021/04/20 07:58:20;;;;;;;16.95;13.38;;;8.80;64.30;;;;;;4990246;29;20064;-67
2021/04/20 08:01:30;;;;;;;15.63;13.57;;;8.90;63.50;;;;;;4989426;29;20283;-66
2021/04/20 08:04:39;;;;;;;22.90;16.02;;;8.90;63.40;;;;;;4992572;29;20069;-66
2021/04/20 08:07:32;;;;;;;17.58;11.43;;;9.00;63.90;;;;;;4989876;29;20053;-66
2021/04/20 08:10:08;;;;;;;12.90;8.88;;;9.10;62.80;;;;;;4988395;29;20062;-68
2021/04/20 08:12:55;;;;;;;12.07;9.32;;;9.20;58.50;;;;;;4988217;29;20065;-66
2021/04/20 08:15:38;;;;;;;12.77;9.10;;;9.20;59.20;;;;;;4990021;29;20054;-66
2021/04/20 08:18:23;;;;;;;19.17;9.75;;;9.30;58.10;;;;;;4990205;29;20057;-66
2021/04/20 08:20:55;;;;;;;12.02;9.27;;;9.40;58.40;;;;;;4987818;29;20087;-65
2021/04/20 08:23:28;;;;;;;10.68;8.80;;;9.60;58.50;;;;;;4991654;29;20145;-65
2021/04/20 08:26:07;;;;;;;18.55;14.48;;;9.70;57.80;;;;;;4989051;29;20046;-65
2021/04/20 08:29:04;;;;;;;13.27;9.63;;;9.80;58.20;;;;;;4988877;29;20041;-66
2021/04/20 08:31:54;;;;;;;12.68;9.23;;;9.90;57.10;;;;;;4991467;29;20098;-66
2021/04/20 08:34:41;;;;;;;11.25;9.13;;;10.00;55.90;;;;;;4987719;29;20058;-66
2021/04/20 08:37:46;;;;;;;13.95;9.35;;;10.10;56.40;;;;;;4989325;29;20539;-65
2021/04/20 08:40:28;;;;;;;12.82;10.07;;;10.20;55.90;;;;;;4988707;29;20057;-65
2021/04/20 08:43:32;;;;;;;12.48;9.38;;;10.30;55.80;;;;;;4987914;29;20501;-65
2021/04/20 08:46:18;;;;;;;13.45;9.63;;;10.40;55.80;;;;;;4989956;29;20050;-66
2021/04/20 08:48:56;;;;;;;12.02;9.35;;;10.60;53.10;;;;;;4990449;29;20065;-65
2021/04/20 08:52:00;;;;;;;10.98;9.30;;;10.70;54.50;;;;;;4989788;29;20065;-65
2021/04/20 08:54:54;;;;;;;10.75;8.88;;;10.80;52.40;;;;;;4992259;29;20506;-66
2021/04/20 08:57:41;;;;;;;14.07;9.90;;;10.80;52.60;;;;;;4989406;29;20054;-65
2021/04/20 09:00:24;;;;;;;12.20;10.27;;;10.90;53.50;;;;;;4990141;29;20045;-66
2021/04/20 09:03:25;;;;;;;12.43;9.85;;;11.10;53.90;;;;;;4993224;29;20053;-65
2021/04/20 09:05:58;;;;;;;11.65;9.82;;;11.20;52.90;;;;;;4988391;29;20038;-65
2021/04/20 09:08:35;;;;;;;12.75;9.65;;;11.30;52.80;;;;;;4992359;29;20066;-67
2021/04/20 09:11:10;;;;;;;12.50;10.02;;;11.40;51.00;;;;;;4995180;29;20055;-66
2021/04/20 09:14:02;;;;;;;12.20;10.23;;;11.50;51.10;;;;;;4993054;29;20047;-65
2021/04/20 09:16:45;;;;;;;12.80;11.05;;;11.60;51.00;;;;;;4993621;29;20102;-65
2021/04/20 09:19:49;;;;;;;12.48;10.77;;;11.70;49.30;;;;;;4994188;29;20048;-65
2021/04/20 09:23:08;;;;;;;11.98;10.30;;;11.80;47.60;;;;;;4988618;29;20050;-66
2021/04/20 09:25:57;;;;;;;12.00;10.50;;;11.90;48.90;;;;;;4972542;29;20054;-65
2021/04/20 09:28:32;;;;;;;12.93;10.02;;;12.00;49.70;;;;;;4989939;29;20042;-65
2021/04/20 09:31:17;;;;;;;12.10;10.80;;;12.20;49.80;;;;;;5004776;29;20046;-66
2021/04/20 09:33:52;;;;;;;12.32;10.23;;;12.40;50.10;;;;;;4990845;29;20504;-66
2021/04/20 09:36:24;;;;;;;12.93;11.02;;;12.60;47.50;;;;;;4992933;29;20051;-65
2021/04/20 09:38:59;;;;;;;12.43;10.13;;;12.60;47.10;;;;;;4990044;29;20043;-65
2021/04/20 09:41:44;;;;;;;11.77;10.00;;;12.60;47.60;;;;;;4991185;29;20056;-65
2021/04/20 09:44:38;;;;;;;12.38;9.63;;;12.60;48.00;;;;;;4989844;29;20087;-65
2021/04/20 09:47:19;;;;;;;14.35;10.60;;;12.60;47.10;;;;;;4991804;29;20054;-65
2021/04/20 09:50:06;;;;;;;12.48;9.60;;;12.70;47.60;;;;;;4993392;29;20046;-65
2021/04/20 09:52:50;;;;;;;32.88;23.10;;;12.70;47.40;;;;;;4992340;29;20120;-65
2021/04/20 09:55:42;;;;;;;19.05;14.98;;;12.70;47.90;;;;;;5004729;29;20050;-65
2021/04/20 09:58:20;;;;;;;28.10;19.48;;;12.70;46.40;;;;;;4996224;29;20125;-66
2021/04/20 10:00:52;;;;;;;11.70;9.75;;;12.60;45.60;;;;;;4991617;29;20118;-65
2021/04/20 10:03:26;;;;;;;11.35;10.07;;;12.60;47.30;;;;;;4993772;29;20038;-65
2021/04/20 10:06:33;;;;;;;12.93;10.27;;;12.70;46.60;;;;;;4994409;29;20079;-65
2021/04/20 10:09:32;;;;;;;14.27;11.43;;;12.70;47.80;;;;;;5007304;29;20073;-66
2021/04/20 10:12:31;;;;;;;17.55;13.75;;;12.70;45.20;;;;;;4992105;29;20502;-66
2021/04/20 10:15:23;;;;;;;19.42;14.82;;;12.70;44.00;;;;;;4993489;29;20131;-67
2021/04/20 10:18:14;;;;;;;10.45;9.25;;;12.70;44.90;;;;;;4994829;29;20064;-65
2021/04/20 10:21:18;;;;;;;10.18;8.95;;;12.80;43.80;;;;;;4990340;29;20118;-66
2021/04/20 10:24:05;;;;;;;10.63;8.73;;;12.80;42.00;;;;;;4994937;29;20041;-65
2021/04/20 10:26:49;;;;;;;11.40;9.48;;;12.80;42.50;;;;;;4989022;29;20046;-65
2021/04/20 10:29:33;;;;;;;11.20;9.95;;;12.80;42.40;;;;;;4993631;29;20130;-66
2021/04/20 10:32:12;;;;;;;10.45;9.18;;;12.90;44.30;;;;;;4991093;29;20081;-65
2021/04/20 10:34:48;;;;;;;11.70;9.38;;;13.00;44.60;;;;;;4991720;29;20436;-66
2021/04/20 10:37:47;;;;;;;10.98;9.55;;;13.10;45.10;;;;;;4989075;29;20049;-64
2021/04/20 10:40:34;;;;;;;11.20;9.07;;;13.20;42.10;;;;;;5006533;29;20153;-66
2021/04/20 10:43:12;;;;;;;10.93;9.25;;;13.20;40.90;;;;;;4990357;29;20855;-66
2021/04/20 10:45:44;;;;;;;10.27;9.18;;;13.10;40.60;;;;;;4992992;29;20103;-64
2021/04/20 10:48:24;;;;;;;10.30;9.15;;;13.20;41.80;;;;;;4991569;29;20083;-65
2021/04/20 10:50:56;;;;;;;10.10;8.38;;;13.40;40.70;;;;;;4991273;29;20099;-64
2021/04/20 10:53:34;;;;;;;9.88;8.68;;;13.50;40.90;;;;;;4992400;29;20077;-64
2021/04/20 10:56:16;;;;;;;9.05;8.10;;;13.50;40.10;;;;;;4988735;29;20122;-66
2021/04/20 10:58:50;;;;;;;9.02;8.13;;;13.70;39.10;;;;;;4990953;29;20054;-64
2021/04/20 11:01:24;;;;;;;10.43;8.38;;;13.80;37.70;;;;;;4992753;29;20046;-66
2021/04/20 11:04:00;;;;;;;10.07;7.22;;;13.90;37.50;;;;;;5005168;29;20865;-65
2021/04/20 11:06:50;;;;;;;8.65;7.65;;;13.90;35.90;;;;;;4991323;29;20043;-64
2021/04/20 11:09:28;;;;;;;;;;;14.10;37.20;;;;;;4991721;29;20624;-64
2021/04/20 11:12:14;;;;;;;9.60;8.55;;;14.20;36.80;;;;;;4990574;29;19936;-64
2021/04/20 11:14:48;;;;;;;9.18;8.27;;;14.40;36.40;;;;;;4989692;29;20047;-64
2021/04/20 11:17:42;;;;;;;9.23;8.32;;;14.50;36.20;;;;;;4991673;29;20053;-65
2021/04/20 11:20:29;;;;;;;11.82;9.90;;;14.90;35.60;;;;;;4991656;29;20072;-64
2021/04/20 11:23:07;;;;;;;10.18;9.18;;;15.40;36.10;;;;;;4988822;29;20038;-65
2021/04/20 11:25:52;;;;;;;11.73;10.63;;;15.90;35.70;;;;;;4989285;29;20638;-64
2021/04/20 11:28:44;;;;;;;11.50;10.30;;;16.20;37.40;;;;;;4993191;29;20042;-64
2021/04/20 11:31:49;;;;;;;12.13;9.18;;;16.50;35.30;;;;;;4978677;29;20517;-65
2021/04/20 11:34:23;;;;;;;9.40;8.30;;;16.70;32.70;;;;;;4992929;29;20141;-64
2021/04/20 11:37:05;;;;;;;10.45;9.45;;;16.40;32.60;;;;;;4988525;29;20529;-64
2021/04/20 11:39:41;;;;;;;11.38;10.27;;;16.30;33.40;;;;;;5004291;29;20043;-64
2021/04/20 11:42:24;;;;;;;10.68;9.57;;;15.90;35.20;;;;;;5004613;29;20099;-66
2021/04/20 11:45:19;;;;;;;10.68;9.18;;;15.50;34.90;;;;;;4989087;29;20050;-65
2021/04/20 11:48:09;;;;;;;10.82;9.32;;;15.40;36.50;;;;;;4988458;29;20058;-66
2021/04/20 11:50:50;;;;;;;10.93;9.68;;;15.50;36.30;;;;;;5001740;29;20054;-65
2021/04/20 11:53:23;;;;;;;10.98;9.88;;;15.70;36.30;;;;;;5003694;29;20418;-64
2021/04/20 11:55:59;;;;;;;9.82;8.88;;;16.00;35.40;;;;;;4990593;29;20560;-65
2021/04/20 11:58:40;;;;;;;9.90;8.90;;;15.90;34.70;;;;;;4994005;29;20034;-64
2021/04/20 12:01:16;;;;;;;11.20;10.10;;;15.80;34.70;;;;;;4990353;29;20057;-65
2021/04/20 12:04:05;;;;;;;11.50;10.32;;;16.10;34.60;;;;;;4992185;29;20106;-64
2021/04/20 12:06:48;;;;;;;10.82;9.60;;;16.30;34.60;;;;;;5001700;29;20121;-64
2021/04/20 12:09:22;;;;;;;10.18;8.95;;;16.50;34.10;;;;;;4999499;29;20150;-65
2021/04/20 12:11:54;;;;;;;11.18;10.07;;;16.50;35.90;;;;;;4989853;29;20057;-66
2021/04/20 12:14:28;;;;;;;10.57;9.57;;;16.60;34.80;;;;;;4991470;29;20049;-64
2021/04/20 12:17:00;;;;;;;10.95;9.85;;;16.40;35.10;;;;;;4990610;29;20060;-66
2021/04/20 12:19:35;;;;;;;11.35;10.20;;;16.10;34.90;;;;;;4998134;29;20082;-65
2021/04/20 12:22:07;;;;;;;10.57;9.48;;;15.80;35.50;;;;;;4991085;29;20058;-64
2021/04/20 12:24:41;;;;;;;10.20;9.13;;;15.60;36.10;;;;;;4996502;29;20078;-64
2021/04/20 12:27:13;;;;;;;10.63;9.63;;;15.50;36.10;;;;;;4993892;29;20061;-64
2021/04/20 12:29:45;;;;;;;11.50;10.30;;;15.50;36.50;;;;;;4992539;29;20520;-64
2021/04/20 12:32:24;;;;;;;11.93;10.68;;;15.70;36.80;;;;;;4987161;29;20054;-64
2021/04/20 12:34:57;;;;;;;12.00;10.80;;;15.80;36.80;;;;;;4988120;29;20103;-65
2021/04/20 12:37:31;;;;;;;11.73;10.55;;;15.90;37.10;;;;;;4992636;29;20404;-65
2021/04/20 12:40:12;;;;;;;12.35;11.15;;;16.10;36.20;;;;;;4991082;29;20049;-65
2021/04/20 12:42:46;;;;;;;13.35;12.05;;;16.30;36.00;;;;;;4989071;29;20149;-66
2021/04/20 12:45:20;;;;;;;12.00;10.90;;;16.50;36.40;;;;;;4985277;29;20077;-65
2021/04/20 12:47:55;;;;;;;12.90;11.70;;;16.80;34.70;;;;;;5009874;29;20401;-64
2021/04/20 12:50:31;;;;;;;12.48;11.15;;;16.80;34.20;;;;;;4992127;29;20054;-64
2021/04/20 12:53:06;;;;;;;13.13;11.88;;;17.10;34.50;;;;;;4993051;29;20544;-64
2021/04/20 12:55:41;;;;;;;12.30;11.13;;;17.30;31.90;;;;;;4990982;29;20046;-65
2021/04/20 12:58:17;;;;;;;12.52;11.32;;;17.30;32.70;;;;;;4991632;29;20106;-64
2021/04/20 13:01:10;;;;;;;11.60;10.43;;;17.30;32.80;;;;;;4992397;29;20156;-64
2021/04/20 13:03:43;;;;;;;11.38;10.27;;;17.40;33.60;;;;;;4991231;29;20052;-63
2021/04/20 13:06:18;;;;;;;10.73;9.70;;;17.60;30.90;;;;;;4991213;29;20099;-65
2021/04/20 13:08:56;;;;;;;10.55;9.45;;;17.80;31.00;;;;;;4988028;29;20046;-64
2021/04/20 13:11:33;;;;;;;10.57;9.68;;;18.10;30.90;;;;;;4989854;29;20054;-64
2021/04/20 13:14:06;;;;;;;10.45;9.52;;;18.20;29.80;;;;;;4987713;29;20053;-63
2021/04/20 13:16:39;;;;;;;10.88;9.88;;;18.10;28.10;;;;;;4986547;29;20053;-64
2021/04/20 13:19:11;;;;;;;11.73;10.73;;;18.30;31.10;;;;;;4991156;29;20045;-63
2021/04/20 13:21:48;;;;;;;11.02;10.02;;;18.40;30.60;;;;;;4988866;29;20058;-63
2021/04/20 13:24:19;;;;;;;11.20;10.20;;;18.40;30.30;;;;;;4993778;29;20047;-64
2021/04/20 13:26:54;;;;;;;11.15;10.15;;;18.30;29.20;;;;;;4988047;29;20054;-64
2021/04/20 13:29:30;;;;;;;10.30;9.40;;;18.20;29.40;;;;;;4987899;29;20051;-63
2021/04/20 13:32:05;;;;;;;12.00;10.80;;;18.10;30.60;;;;;;4994851;29;20539;-64
2021/04/20 13:34:41;;;;;;;12.68;11.48;;;18.30;31.40;;;;;;4995405;29;20050;-63
2021/04/20 13:37:35;;;;;;;14.15;12.85;;;18.50;32.50;;;;;;5001966;29;20165;-63
2021/04/20 13:40:16;;;;;;;13.07;11.90;;;18.60;32.90;;;;;;4991930;29;20403;-63
2021/04/20 13:42:56;;;;;;;12.88;11.68;;;18.60;33.20;;;;;;4997331;29;20586;-64